createdAt,value
2023-04-27T00:00:11.852Z,1.90
2023-04-27T00:02:41.767Z,1.90
2023-04-27T00:05:11.269Z,1.63
2023-04-27T00:07:39.651Z,1.83
2023-04-27T00:10:09.105Z,1.90
2023-04-27T00:12:39.431Z,2.20
2023-04-27T00:15:08.744Z,1.93
2023-04-27T00:17:37.481Z,1.50
2023-04-27T00:20:12.035Z,2.20
2023-04-27T00:22:40.160Z,2.10
2023-04-27T00:25:08.877Z,2.73
2023-04-27T00:27:37.012Z,2.07
2023-04-27T00:30:10.010Z,2.20
2023-04-27T00:32:38.223Z,2.00
2023-04-27T00:35:07.134Z,2.17
2023-04-27T00:37:39.704Z,2.23
2023-04-27T00:40:09.001Z,2.07
2023-04-27T00:42:37.472Z,2.20
2023-04-27T00:45:06.906Z,1.57
2023-04-27T00:47:36.240Z,2.57
2023-04-27T00:50:08.462Z,2.27
2023-04-27T00:52:39.303Z,2.93
2023-04-27T00:55:08.431Z,1.97
2023-04-27T00:57:36.720Z,2.63
2023-04-27T01:00:07.104Z,2.20
2023-04-27T01:02:36.853Z,2.30
2023-04-27T01:05:05.782Z,2.23
2023-04-27T01:07:33.946Z,2.30
2023-04-27T01:10:03.476Z,2.27
2023-04-27T01:12:33.624Z,2.17
2023-04-27T01:15:01.766Z,2.27
2023-04-27T01:17:32.744Z,2.77
2023-04-27T01:20:10.476Z,2.60
2023-04-27T01:22:39.095Z,2.80
2023-04-27T01:25:09.993Z,2.60
2023-04-27T01:27:38.087Z,2.77
2023-04-27T01:30:07.906Z,2.37
2023-04-27T01:32:38.907Z,2.77
2023-04-27T01:35:07.667Z,2.83
2023-04-27T01:37:35.938Z,2.60
2023-04-27T01:40:06.004Z,2.60
2023-04-27T01:42:35.528Z,2.13
2023-04-27T01:45:04.134Z,2.73
2023-04-27T01:47:33.259Z,2.80
2023-04-27T01:50:01.429Z,2.73
2023-04-27T01:52:29.701Z,2.40
2023-04-27T01:54:57.847Z,2.87
2023-04-27T01:57:26.780Z,3.30
2023-04-27T01:59:57.953Z,3.00
2023-04-27T02:02:26.270Z,2.80
2023-04-27T02:04:54.860Z,3.17
2023-04-27T02:07:23.049Z,3.20
2023-04-27T02:09:51.135Z,3.63
2023-04-27T02:12:19.269Z,3.60
2023-04-27T02:14:47.427Z,4.90
2023-04-27T02:17:16.873Z,5.17
2023-04-27T02:19:47.505Z,6.77
2023-04-27T02:22:16.339Z,5.50
2023-04-27T02:24:44.443Z,5.50
2023-04-27T02:27:12.844Z,5.33
2023-04-27T02:29:41.841Z,4.70
2023-04-27T02:32:10.405Z,4.77
2023-04-27T02:34:41.681Z,4.23
2023-04-27T02:37:09.916Z,3.77
2023-04-27T02:39:38.160Z,3.70
2023-04-27T02:42:08.504Z,4.13
2023-04-27T02:44:37.031Z,3.63
2023-04-27T02:47:07.261Z,3.63
2023-04-27T02:49:38.214Z,3.40
2023-04-27T02:52:08.410Z,4.23
2023-04-27T02:54:36.696Z,3.37
2023-04-27T02:57:04.918Z,2.93
2023-04-27T02:59:33.758Z,3.17
2023-04-27T03:02:02.014Z,3.47
2023-04-27T03:04:30.112Z,3.73
2023-04-27T03:06:58.222Z,5.30
2023-04-27T03:09:29.698Z,3.93
2023-04-27T03:11:58.929Z,3.60
2023-04-27T03:14:28.271Z,3.90
2023-04-27T03:16:57.460Z,4.20
2023-04-27T03:19:25.685Z,3.30
2023-04-27T03:21:53.884Z,3.43
2023-04-27T03:24:21.963Z,3.57
2023-04-27T03:26:53.663Z,3.20
2023-04-27T03:29:22.545Z,3.50
2023-04-27T03:31:50.686Z,3.17
2023-04-27T03:34:20.913Z,3.50
2023-04-27T03:36:49.009Z,3.23
2023-04-27T03:39:17.136Z,4.00
2023-04-27T03:41:48.399Z,3.57
2023-04-27T03:44:17.933Z,3.63
2023-04-27T03:46:46.091Z,2.97
2023-04-27T03:49:14.365Z,3.10
2023-04-27T03:51:43.993Z,3.23
2023-04-27T03:54:12.189Z,4.07
2023-04-27T03:56:40.649Z,3.57
2023-04-27T03:59:11.335Z,3.70
2023-04-27T04:01:45.495Z,4.00
2023-04-27T04:04:13.872Z,5.13
2023-04-27T04:06:43.614Z,3.07
2023-04-27T04:09:13.665Z,3.67
2023-04-27T04:11:42.138Z,3.30
2023-04-27T04:14:13.272Z,3.67
2023-04-27T04:16:41.775Z,3.70
2023-04-27T04:19:11.484Z,3.70
2023-04-27T04:21:39.694Z,3.80
2023-04-27T04:24:11.159Z,3.23
2023-04-27T04:26:39.822Z,3.60
2023-04-27T04:29:10.256Z,3.50
2023-04-27T04:31:39.172Z,3.87
2023-04-27T04:34:08.608Z,3.73
2023-04-27T04:36:38.397Z,3.50
2023-04-27T04:39:07.183Z,3.80
2023-04-27T04:41:35.382Z,3.10
2023-04-27T04:44:06.176Z,4.50
2023-04-27T04:46:35.182Z,3.47
2023-04-27T04:49:05.847Z,3.40
2023-04-27T04:51:37.854Z,4.43
2023-04-27T04:54:07.204Z,3.97
2023-04-27T04:56:35.762Z,4.10
2023-04-27T04:59:05.447Z,4.33
2023-04-27T05:01:36.595Z,3.67
2023-04-27T05:04:05.033Z,4.17
2023-04-27T05:06:33.443Z,4.07
2023-04-27T05:09:03.800Z,4.33
2023-04-27T05:11:32.131Z,4.40
2023-04-27T05:14:00.337Z,4.43
2023-04-27T05:16:28.526Z,4.03
2023-04-27T05:18:59.240Z,4.53
2023-04-27T05:21:27.326Z,4.40
2023-04-27T05:23:57.599Z,4.30
2023-04-27T05:26:27.346Z,5.55
2023-04-27T05:28:55.585Z,5.10
2023-04-27T05:31:23.868Z,4.57
2023-04-27T05:33:52.022Z,4.80
2023-04-27T05:36:20.270Z,4.63
2023-04-27T05:38:50.488Z,4.37
2023-04-27T05:41:18.700Z,5.13
2023-04-27T05:43:48.541Z,4.73
2023-04-27T05:46:17.120Z,4.43
2023-04-27T05:48:45.413Z,4.50
2023-04-27T05:51:16.648Z,4.47
2023-04-27T05:53:44.763Z,6.23
2023-04-27T05:56:12.911Z,4.87
2023-04-27T05:58:43.338Z,6.33
2023-04-27T06:01:13.316Z,4.83
2023-04-27T06:03:41.611Z,5.80
2023-04-27T06:06:09.825Z,5.73
2023-04-27T06:08:40.453Z,7.00
2023-04-27T06:11:08.508Z,7.17
2023-04-27T06:13:39.244Z,8.27
2023-04-27T06:16:09.548Z,6.17
2023-04-27T06:18:39.070Z,6.47
2023-04-27T06:21:07.393Z,7.67
2023-04-27T06:23:37.579Z,5.83
2023-04-27T06:26:05.884Z,6.00
2023-04-27T06:28:34.004Z,5.33
2023-04-27T06:31:04.337Z,6.07
2023-04-27T06:33:32.506Z,5.13
2023-04-27T06:36:03.048Z,5.37
2023-04-27T06:38:31.292Z,4.17
2023-04-27T06:40:59.388Z,4.07
2023-04-27T06:43:27.549Z,3.47
2023-04-27T06:45:56.159Z,4.07
2023-04-27T06:48:26.998Z,3.67
2023-04-27T06:50:55.132Z,3.83
2023-04-27T06:53:24.643Z,3.40
2023-04-27T06:55:52.874Z,4.13
2023-04-27T06:58:20.955Z,3.57
2023-04-27T07:00:51.658Z,3.03
2023-04-27T07:03:19.861Z,2.60
2023-04-27T07:05:51.573Z,2.73
2023-04-27T07:08:19.803Z,2.27
2023-04-27T07:10:51.536Z,3.37
2023-04-27T07:13:19.827Z,3.10
2023-04-27T07:15:47.984Z,3.10
2023-04-27T07:18:18.847Z,3.47
2023-04-27T07:20:46.954Z,3.70
2023-04-27T07:23:15.212Z,3.43
2023-04-27T07:25:43.513Z,2.90
2023-04-27T07:28:13.270Z,3.13
2023-04-27T07:30:41.949Z,3.43
2023-04-27T07:33:13.142Z,3.23
2023-04-27T07:35:41.362Z,3.50
2023-04-27T07:38:09.506Z,3.00
2023-04-27T07:40:37.614Z,2.33
2023-04-27T07:43:08.140Z,2.47
2023-04-27T07:45:39.904Z,2.70
2023-04-27T07:48:10.484Z,2.90
2023-04-27T07:50:40.908Z,3.00
2023-04-27T07:53:09.066Z,2.23
2023-04-27T07:55:37.165Z,2.63
2023-04-27T07:58:07.430Z,2.67
2023-04-27T08:00:37.408Z,2.73
2023-04-27T08:03:06.178Z,2.70
2023-04-27T08:05:35.161Z,2.90
2023-04-27T08:08:06.312Z,2.60
2023-04-27T08:10:34.557Z,2.70
2023-04-27T08:13:02.782Z,2.33
2023-04-27T08:15:33.049Z,2.00
2023-04-27T08:18:02.571Z,2.03
2023-04-27T08:20:33.741Z,1.93
2023-04-27T08:23:04.342Z,2.27
2023-04-27T08:25:36.580Z,2.20
2023-04-27T08:28:04.838Z,2.90
2023-04-27T08:30:33.069Z,3.00
2023-04-27T08:33:02.859Z,2.23
2023-04-27T08:35:31.429Z,2.17
2023-04-27T08:38:01.765Z,2.20
2023-04-27T08:40:32.324Z,2.20
2023-04-27T08:43:01.436Z,2.33
2023-04-27T08:45:29.929Z,2.40
2023-04-27T08:47:58.125Z,2.53
2023-04-27T08:50:31.439Z,1.93
2023-04-27T08:52:59.884Z,2.30
2023-04-27T08:55:27.977Z,2.67
2023-04-27T08:57:57.201Z,2.20
2023-04-27T09:00:28.547Z,2.37
2023-04-27T09:02:57.057Z,1.90
2023-04-27T09:05:25.622Z,2.53
2023-04-27T09:08:05.188Z,1.70
2023-04-27T09:10:45.378Z,2.03
2023-04-27T09:13:13.588Z,2.10
2023-04-27T09:15:47.842Z,2.40
2023-04-27T09:18:18.779Z,2.30
2023-04-27T09:20:50.920Z,1.77
2023-04-27T09:23:29.326Z,2.33
2023-04-27T09:26:00.908Z,2.10
2023-04-27T09:28:30.955Z,1.97
2023-04-27T09:31:00.399Z,2.10
2023-04-27T09:33:30.286Z,1.60
2023-04-27T09:36:02.958Z,1.97
2023-04-27T09:38:32.700Z,1.70
2023-04-27T09:41:01.175Z,1.90
2023-04-27T09:43:31.416Z,1.70
2023-04-27T09:46:00.075Z,2.00
2023-04-27T09:48:28.285Z,2.23
2023-04-27T09:50:56.423Z,2.17
2023-04-27T09:53:30.106Z,2.07
2023-04-27T09:56:21.800Z,2.17
2023-04-27T09:59:11.385Z,1.73
2023-04-27T10:01:44.557Z,1.93
2023-04-27T10:04:31.252Z,2.30
2023-04-27T10:07:03.332Z,2.50
2023-04-27T10:09:37.752Z,2.10
2023-04-27T10:12:18.948Z,2.10
2023-04-27T10:14:54.571Z,2.93
2023-04-27T10:17:32.520Z,2.33
2023-04-27T10:20:02.186Z,2.57
2023-04-27T10:22:40.323Z,2.33
2023-04-27T10:25:19.865Z,1.70
2023-04-27T10:27:54.792Z,2.37
2023-04-27T10:30:24.945Z,2.20
2023-04-27T10:32:54.582Z,2.03
2023-04-27T10:35:23.681Z,2.27
2023-04-27T10:37:53.136Z,2.27
2023-04-27T10:40:21.268Z,2.10
2023-04-27T10:42:52.814Z,2.20
2023-04-27T10:45:31.837Z,2.27
2023-04-27T10:48:01.813Z,2.00
2023-04-27T10:50:33.025Z,1.90
2023-04-27T10:53:02.722Z,2.17
2023-04-27T10:55:31.857Z,2.30
2023-04-27T10:58:02.004Z,2.53
2023-04-27T11:00:32.376Z,2.63
2023-04-27T11:03:15.821Z,2.67
2023-04-27T11:05:45.125Z,2.43
2023-04-27T11:08:15.302Z,2.03
2023-04-27T11:10:49.211Z,2.27
2023-04-27T11:13:20.406Z,2.60
2023-04-27T11:15:50.496Z,2.40
2023-04-27T11:18:21.598Z,2.33
2023-04-27T11:20:52.404Z,2.30
2023-04-27T11:23:28.851Z,1.97
2023-04-27T11:25:59.831Z,1.97
2023-04-27T11:28:29.306Z,2.20
2023-04-27T11:31:00.219Z,2.30
2023-04-27T11:33:29.137Z,2.67
2023-04-27T11:35:57.478Z,2.23
2023-04-27T11:38:26.454Z,2.37
2023-04-27T11:41:01.794Z,2.60
2023-04-27T11:43:31.747Z,2.67
2023-04-27T11:46:04.636Z,2.83
2023-04-27T11:48:38.225Z,2.90
2023-04-27T11:51:07.054Z,2.37
2023-04-27T11:53:36.338Z,2.10
2023-04-27T11:56:06.127Z,2.33
2023-04-27T11:58:38.787Z,2.20
2023-04-27T12:01:07.601Z,2.17
2023-04-27T12:03:36.610Z,2.10
2023-04-27T12:06:27.636Z,2.30
2023-04-27T12:08:57.004Z,2.13
2023-04-27T12:11:28.715Z,2.37
2023-04-27T12:13:58.739Z,2.37
2023-04-27T12:16:27.158Z,2.77
2023-04-27T12:18:55.283Z,2.50
2023-04-27T12:21:23.833Z,2.40
2023-04-27T12:23:51.948Z,2.33
2023-04-27T12:26:22.347Z,2.90
2023-04-27T12:28:52.781Z,2.67
2023-04-27T12:31:26.851Z,2.80
2023-04-27T12:33:55.980Z,2.70
2023-04-27T12:36:27.211Z,2.67
2023-04-27T12:38:58.902Z,2.70
2023-04-27T12:41:27.237Z,2.87
2023-04-27T12:43:56.414Z,2.60
2023-04-27T12:46:26.093Z,2.83
2023-04-27T12:48:56.278Z,2.80
2023-04-27T12:51:24.852Z,3.00
2023-04-27T12:53:52.950Z,2.40
2023-04-27T12:56:21.696Z,2.97
2023-04-27T12:58:51.968Z,2.40
2023-04-27T13:01:21.487Z,2.70
2023-04-27T13:03:52.437Z,2.53
2023-04-27T13:06:22.779Z,2.90
2023-04-27T13:08:53.903Z,2.43
2023-04-27T13:11:22.169Z,2.80
2023-04-27T13:13:50.794Z,2.70
2023-04-27T13:16:22.565Z,3.07
2023-04-27T13:18:52.479Z,2.70
2023-04-27T13:21:23.784Z,3.07
2023-04-27T13:23:54.768Z,2.80
2023-04-27T13:26:22.953Z,2.60
2023-04-27T13:28:53.359Z,3.00
2023-04-27T13:31:21.704Z,2.40
2023-04-27T13:33:55.009Z,2.80
2023-04-27T13:36:25.615Z,3.43
2023-04-27T13:38:54.139Z,2.80
2023-04-27T13:41:22.440Z,2.70
2023-04-27T13:43:50.619Z,3.00
2023-04-27T13:46:18.825Z,3.10
2023-04-27T13:48:50.279Z,3.03
2023-04-27T13:51:19.926Z,2.83
2023-04-27T13:53:48.080Z,2.50
2023-04-27T13:56:16.248Z,2.77
2023-04-27T13:58:44.452Z,3.37
2023-04-27T14:01:12.714Z,3.73
2023-04-27T14:03:43.390Z,2.90
2023-04-27T14:06:12.004Z,3.20
2023-04-27T14:08:41.842Z,2.40
2023-04-27T14:11:12.493Z,2.40
2023-04-27T14:13:40.684Z,2.63
2023-04-27T14:16:09.642Z,2.20
2023-04-27T14:18:37.855Z,2.90
2023-04-27T14:21:06.389Z,3.73
2023-04-27T14:23:37.620Z,3.00
2023-04-27T14:26:07.251Z,2.93
2023-04-27T14:28:35.654Z,3.00
2023-04-27T14:31:06.223Z,3.20
2023-04-27T14:33:36.451Z,3.57
2023-04-27T14:36:04.849Z,3.37
2023-04-27T14:38:32.979Z,3.40
2023-04-27T14:41:03.422Z,3.17
2023-04-27T14:43:33.004Z,3.13
2023-04-27T14:46:19.074Z,2.70
2023-04-27T14:48:48.630Z,3.00
2023-04-27T14:51:17.494Z,3.37
2023-04-27T14:53:45.678Z,4.37
2023-04-27T14:56:14.719Z,3.60
2023-04-27T14:58:44.330Z,2.27
2023-04-27T15:01:12.586Z,2.90
2023-04-27T15:03:43.139Z,2.77
2023-04-27T15:06:11.466Z,3.20
2023-04-27T15:08:41.589Z,3.27
2023-04-27T15:11:09.754Z,3.40
2023-04-27T15:13:37.949Z,3.42
2023-04-27T15:16:08.109Z,2.83
2023-04-27T15:18:36.388Z,3.33
2023-04-27T15:21:04.727Z,3.07
2023-04-27T15:23:33.814Z,3.10
2023-04-27T15:26:02.148Z,3.33
2023-04-27T15:28:30.353Z,3.07
2023-04-27T15:30:58.509Z,2.60
2023-04-27T15:33:28.194Z,3.20
2023-04-27T15:35:59.014Z,3.45
2023-04-27T15:38:29.858Z,3.90
2023-04-27T15:40:57.996Z,3.00
2023-04-27T15:43:26.260Z,3.27
2023-04-27T15:45:55.102Z,2.97
2023-04-27T15:48:23.245Z,3.00
2023-04-27T15:50:53.151Z,3.07
2023-04-27T15:53:21.378Z,2.73
2023-04-27T15:55:49.534Z,2.70
2023-04-27T15:58:17.899Z,3.13
2023-04-27T16:00:46.344Z,3.50
2023-04-27T16:03:14.793Z,2.73
2023-04-27T16:05:43.143Z,2.53
2023-04-27T16:08:12.758Z,2.77
2023-04-27T16:10:43.232Z,2.53
2023-04-27T16:13:11.593Z,2.20
2023-04-27T16:15:42.095Z,2.90
2023-04-27T16:18:10.633Z,2.80
2023-04-27T16:20:38.906Z,2.67
2023-04-27T16:23:07.132Z,2.70
2023-04-27T16:25:36.825Z,4.67
2023-04-27T16:28:05.017Z,3.30
2023-04-27T16:30:33.238Z,3.23
2023-04-27T16:33:01.506Z,3.00
2023-04-27T16:35:30.202Z,3.00
2023-04-27T16:37:58.414Z,2.80
2023-04-27T16:40:26.599Z,2.73
2023-04-27T16:42:59.475Z,2.93
2023-04-27T16:45:30.182Z,2.30
2023-04-27T16:47:59.755Z,2.87
2023-04-27T16:50:28.265Z,2.43
2023-04-27T16:53:06.233Z,3.20
2023-04-27T16:55:37.045Z,3.17
2023-04-27T16:58:07.117Z,2.70
2023-04-27T17:00:35.333Z,2.43
2023-04-27T17:03:03.709Z,2.73
2023-04-27T17:05:32.468Z,2.57
2023-04-27T17:10:32.211Z,2.33
2023-04-27T17:13:02.542Z,2.80
2023-04-27T17:15:32.338Z,2.00
2023-04-27T17:18:05.188Z,2.60
2023-04-27T17:20:35.831Z,1.80
2023-04-27T17:23:07.086Z,2.10
2023-04-27T17:25:35.262Z,2.50
2023-04-27T17:28:03.395Z,2.77
2023-04-27T17:30:35.002Z,2.30
2023-04-27T17:33:03.904Z,2.00
2023-04-27T17:35:32.223Z,2.40
2023-04-27T17:38:00.551Z,2.20
2023-04-27T17:40:28.728Z,2.53
2023-04-27T17:42:57.916Z,2.07
2023-04-27T17:45:28.662Z,2.27
2023-04-27T17:47:58.352Z,2.20
2023-04-27T17:50:26.914Z,1.80
2023-04-27T17:52:55.221Z,1.80
2023-04-27T17:55:23.796Z,2.60
2023-04-27T17:57:52.260Z,1.70
2023-04-27T18:00:21.353Z,2.40
2023-04-27T18:02:49.740Z,2.67
2023-04-27T18:05:19.533Z,2.37
2023-04-27T18:07:47.679Z,1.90
2023-04-27T18:10:16.328Z,2.07
2023-04-27T18:12:44.507Z,2.07
2023-04-27T18:15:12.914Z,2.57
2023-04-27T18:17:41.207Z,2.60
2023-04-27T18:20:13.150Z,3.17
2023-04-27T18:22:42.848Z,2.67
2023-04-27T18:25:13.104Z,2.87
2023-04-27T18:27:41.608Z,2.40
2023-04-27T18:30:10.137Z,2.60
2023-04-27T18:32:38.768Z,2.90
2023-04-27T18:35:07.712Z,3.20
2023-04-27T18:37:38.251Z,3.30
2023-04-27T18:40:09.593Z,3.23
2023-04-27T18:42:37.804Z,2.93
2023-04-27T18:45:07.015Z,3.20
2023-04-27T18:47:35.236Z,2.50
2023-04-27T18:50:03.708Z,3.10
2023-04-27T18:52:31.919Z,3.67
2023-04-27T18:55:00.184Z,3.93
2023-04-27T18:57:29.787Z,3.93
2023-04-27T19:00:00.330Z,3.93
2023-04-27T19:02:28.776Z,3.50
2023-04-27T19:05:11.643Z,3.80
2023-04-27T19:07:41.061Z,3.50
2023-04-27T19:10:10.462Z,3.20
2023-04-27T19:12:39.945Z,3.40
2023-04-27T19:15:11.520Z,3.27
2023-04-27T19:17:40.347Z,2.60
2023-04-27T19:20:10.304Z,3.00
2023-04-27T19:22:38.675Z,2.83
2023-04-27T19:25:09.565Z,3.27
2023-04-27T19:27:39.227Z,3.43
2023-04-27T19:30:08.923Z,2.90
2023-04-27T19:32:37.255Z,3.50
2023-04-27T19:35:05.958Z,3.23
2023-04-27T19:37:34.174Z,2.80
2023-04-27T19:40:02.527Z,2.90
2023-04-27T19:42:31.615Z,3.10
2023-04-27T19:45:01.786Z,3.30
2023-04-27T19:47:30.460Z,3.23
2023-04-27T19:50:00.808Z,3.03
2023-04-27T19:52:28.956Z,3.47
2023-04-27T19:54:57.755Z,3.10
2023-04-27T19:57:26.021Z,3.30
2023-04-27T19:59:54.195Z,3.40
2023-04-27T20:02:23.829Z,2.83
2023-04-27T20:04:52.113Z,3.30
2023-04-27T20:07:20.653Z,2.90
2023-04-27T20:09:48.918Z,2.90
2023-04-27T20:12:40.297Z,3.17
2023-04-27T20:15:06.797Z,3.20
2023-04-27T20:17:36.492Z,2.80
2023-04-27T20:20:09.381Z,2.67
2023-04-27T20:22:37.694Z,2.90
2023-04-27T20:25:07.870Z,3.00
2023-04-27T20:27:36.162Z,3.00
2023-04-27T20:30:04.717Z,3.40
2023-04-27T20:32:33.000Z,2.80
2023-04-27T20:35:04.847Z,3.10
2023-04-27T20:37:35.673Z,2.47
2023-04-27T20:40:04.749Z,2.73
2023-04-27T20:45:37.828Z,2.80
2023-04-27T20:48:11.875Z,2.50
2023-04-27T20:50:41.654Z,2.93
2023-04-27T20:53:12.407Z,3.10
2023-04-27T20:55:41.146Z,3.00
2023-04-27T20:58:09.864Z,2.90
2023-04-27T21:00:37.992Z,2.53
2023-04-27T21:03:07.329Z,2.70
2023-04-27T21:05:35.773Z,3.00
2023-04-27T21:08:07.847Z,2.47
2023-04-27T21:10:38.375Z,2.90
2023-04-27T21:13:07.078Z,3.00
2023-04-27T21:15:37.756Z,2.97
2023-04-27T21:18:07.869Z,2.63
2023-04-27T21:20:40.108Z,3.27
2023-04-27T21:23:09.627Z,2.57
2023-04-27T21:25:37.781Z,2.60
2023-04-27T21:28:06.156Z,2.60
2023-04-27T21:30:34.314Z,2.47
2023-04-27T21:33:04.787Z,2.00
2023-04-27T21:35:33.325Z,2.40
2023-04-27T21:38:01.820Z,2.17
2023-04-27T21:40:31.374Z,2.70
2023-04-27T21:43:01.632Z,2.67
2023-04-27T21:45:30.042Z,2.23
2023-04-27T21:47:58.201Z,2.30
2023-04-27T21:50:26.488Z,2.30
2023-04-27T21:52:57.221Z,2.13
2023-04-27T21:55:25.527Z,2.07
2023-04-27T21:57:55.038Z,2.47
2023-04-27T22:00:23.573Z,2.23
2023-04-27T22:02:51.859Z,2.20
2023-04-27T22:05:20.992Z,2.47
2023-04-27T22:07:49.180Z,2.20
2023-04-27T22:10:17.386Z,2.07
2023-04-27T22:12:46.842Z,2.00
2023-04-27T22:15:19.832Z,2.03
2023-04-27T22:17:48.496Z,2.13
2023-04-27T22:20:17.341Z,1.90
2023-04-27T22:22:47.486Z,1.60
2023-04-27T22:25:15.893Z,2.00
2023-04-27T22:27:46.771Z,1.80
2023-04-27T22:30:16.202Z,2.00
2023-04-27T22:32:45.787Z,2.33
2023-04-27T22:35:25.420Z,2.03
2023-04-27T22:37:55.772Z,2.10
2023-04-27T22:40:24.343Z,2.10
2023-04-27T22:42:55.467Z,1.97
2023-04-27T22:45:24.153Z,2.07
2023-04-27T22:47:53.882Z,2.20
2023-04-27T22:50:22.307Z,2.03
2023-04-27T22:52:52.965Z,2.20
2023-04-27T22:55:21.241Z,2.03
2023-04-27T22:57:53.657Z,1.93
2023-04-27T23:00:21.949Z,2.23
2023-04-27T23:02:50.351Z,2.40
2023-04-27T23:05:20.014Z,2.00
2023-04-27T23:07:48.168Z,1.93
2023-04-27T23:10:18.841Z,2.13
2023-04-27T23:12:47.348Z,2.07
2023-04-27T23:15:17.672Z,2.40
2023-04-27T23:17:46.107Z,2.40
2023-04-27T23:20:27.333Z,2.23
2023-04-27T23:22:57.520Z,1.93
2023-04-27T23:25:25.844Z,2.47
2023-04-27T23:27:54.023Z,2.77
2023-04-27T23:30:24.457Z,2.17
2023-04-27T23:32:52.711Z,2.63
2023-04-27T23:35:21.188Z,2.30
2023-04-27T23:37:49.403Z,2.53
2023-04-27T23:40:19.070Z,2.60
2023-04-27T23:42:47.888Z,2.50
2023-04-27T23:45:16.721Z,2.40
2023-04-27T23:47:45.048Z,2.47
2023-04-27T23:50:13.318Z,2.60
2023-04-27T23:52:45.129Z,2.30
2023-04-27T23:55:15.614Z,2.40
2023-04-27T23:57:47.264Z,2.37
